sensor_id;sensor_type;location;lat;lon;timestamp;P1;durP1;ratioP1;P2;durP2;ratioP2
51048;SDS011;37084;55.228;36.450;2023-09-18T00:01:23;13.10;;;7.35;;
51048;SDS011;37084;55.228;36.450;2023-09-18T00:04:24;13.07;;;6.95;;
51048;SDS011;37084;55.228;36.450;2023-09-18T00:07:25;12.48;;;7.13;;
51048;SDS011;37084;55.228;36.450;2023-09-18T00:10:27;11.32;;;6.15;;
51048;SDS011;37084;55.228;36.450;2023-09-18T00:13:29;12.40;;;7.32;;
51048;SDS011;37084;55.228;36.450;2023-09-18T00:16:30;12.60;;;7.35;;
51048;SDS011;37084;55.228;36.450;2023-09-18T00:19:33;12.70;;;6.95;;
51048;SDS011;37084;55.228;36.450;2023-09-18T00:22:34;11.30;;;6.70;;
51048;SDS011;37084;55.228;36.450;2023-09-18T00:25:36;13.18;;;6.25;;
51048;SDS011;37084;55.228;36.450;2023-09-18T00:28:43;11.77;;;7.10;;
51048;SDS011;37084;55.228;36.450;2023-09-18T00:31:44;11.27;;;6.55;;
51048;SDS011;37084;55.228;36.450;2023-09-18T00:34:45;10.15;;;6.60;;
51048;SDS011;37084;55.228;36.450;2023-09-18T00:37:46;11.55;;;6.63;;
51048;SDS011;37084;55.228;36.450;2023-09-18T00:40:47;11.52;;;6.68;;
51048;SDS011;37084;55.228;36.450;2023-09-18T00:43:48;14.02;;;6.50;;
51048;SDS011;37084;55.228;36.450;2023-09-18T00:46:49;11.48;;;5.97;;
51048;SDS011;37084;55.228;36.450;2023-09-18T00:49:51;13.50;;;7.13;;
51048;SDS011;37084;55.228;36.450;2023-09-18T00:52:53;10.82;;;5.90;;
51048;SDS011;37084;55.228;36.450;2023-09-18T00:55:54;10.27;;;5.75;;
51048;SDS011;37084;55.228;36.450;2023-09-18T00:58:57;11.07;;;6.32;;
51048;SDS011;37084;55.228;36.450;2023-09-18T01:01:58;11.73;;;5.88;;
51048;SDS011;37084;55.228;36.450;2023-09-18T01:04:59;10.40;;;5.95;;
51048;SDS011;37084;55.228;36.450;2023-09-18T01:08:04;10.45;;;6.05;;
51048;SDS011;37084;55.228;36.450;2023-09-18T01:11:06;9.38;;;5.70;;
51048;SDS011;37084;55.228;36.450;2023-09-18T01:17:35;10.88;;;5.75;;
51048;SDS011;37084;55.228;36.450;2023-09-18T01:20:38;9.77;;;5.88;;
51048;SDS011;37084;55.228;36.450;2023-09-18T01:23:39;11.38;;;5.30;;
51048;SDS011;37084;55.228;36.450;2023-09-18T01:26:59;9.00;;;5.18;;
51048;SDS011;37084;55.228;36.450;2023-09-18T01:30:00;11.68;;;5.22;;
51048;SDS011;37084;55.228;36.450;2023-09-18T01:33:05;9.63;;;5.05;;
51048;SDS011;37084;55.228;36.450;2023-09-18T01:36:07;9.73;;;5.28;;
51048;SDS011;37084;55.228;36.450;2023-09-18T01:39:10;9.45;;;4.70;;
51048;SDS011;37084;55.228;36.450;2023-09-18T01:42:12;10.50;;;4.70;;
51048;SDS011;37084;55.228;36.450;2023-09-18T01:45:13;12.02;;;5.90;;
51048;SDS011;37084;55.228;36.450;2023-09-18T01:48:14;9.57;;;5.18;;
51048;SDS011;37084;55.228;36.450;2023-09-18T01:51:15;8.55;;;4.55;;
51048;SDS011;37084;55.228;36.450;2023-09-18T01:54:16;7.45;;;4.90;;
51048;SDS011;37084;55.228;36.450;2023-09-18T01:57:17;7.90;;;5.05;;
51048;SDS011;37084;55.228;36.450;2023-09-18T02:00:19;10.55;;;4.82;;
51048;SDS011;37084;55.228;36.450;2023-09-18T02:03:21;8.43;;;5.07;;
51048;SDS011;37084;55.228;36.450;2023-09-18T02:06:22;10.18;;;5.28;;
51048;SDS011;37084;55.228;36.450;2023-09-18T02:09:23;8.95;;;4.78;;
51048;SDS011;37084;55.228;36.450;2023-09-18T02:12:24;8.68;;;4.88;;
51048;SDS011;37084;55.228;36.450;2023-09-18T02:15:26;7.80;;;4.50;;
51048;SDS011;37084;55.228;36.450;2023-09-18T02:18:28;7.65;;;4.40;;
51048;SDS011;37084;55.228;36.450;2023-09-18T02:21:29;8.57;;;4.85;;
51048;SDS011;37084;55.228;36.450;2023-09-18T02:24:31;9.40;;;4.65;;
51048;SDS011;37084;55.228;36.450;2023-09-18T02:27:32;10.82;;;5.03;;
51048;SDS011;37084;55.228;36.450;2023-09-18T02:30:33;8.57;;;5.25;;
51048;SDS011;37084;55.228;36.450;2023-09-18T02:33:34;9.23;;;4.72;;
51048;SDS011;37084;55.228;36.450;2023-09-18T02:36:35;7.28;;;4.30;;
51048;SDS011;37084;55.228;36.450;2023-09-18T02:39:36;7.57;;;4.65;;
51048;SDS011;37084;55.228;36.450;2023-09-18T02:42:37;9.27;;;4.85;;
51048;SDS011;37084;55.228;36.450;2023-09-18T02:45:39;9.05;;;4.70;;
51048;SDS011;37084;55.228;36.450;2023-09-18T02:48:41;8.65;;;4.55;;
51048;SDS011;37084;55.228;36.450;2023-09-18T02:51:42;9.73;;;5.18;;
51048;SDS011;37084;55.228;36.450;2023-09-18T02:54:43;9.07;;;4.50;;
51048;SDS011;37084;55.228;36.450;2023-09-18T02:57:44;8.00;;;4.15;;
51048;SDS011;37084;55.228;36.450;2023-09-18T03:00:46;8.15;;;4.68;;
51048;SDS011;37084;55.228;36.450;2023-09-18T03:03:48;7.85;;;4.55;;
51048;SDS011;37084;55.228;36.450;2023-09-18T03:06:49;8.38;;;4.05;;
51048;SDS011;37084;55.228;36.450;2023-09-18T03:09:50;7.93;;;4.55;;
51048;SDS011;37084;55.228;36.450;2023-09-18T03:12:51;8.23;;;4.72;;
51048;SDS011;37084;55.228;36.450;2023-09-18T03:15:53;8.65;;;4.97;;
51048;SDS011;37084;55.228;36.450;2023-09-18T03:18:54;8.75;;;4.13;;
51048;SDS011;37084;55.228;36.450;2023-09-18T03:21:56;7.75;;;4.85;;
51048;SDS011;37084;55.228;36.450;2023-09-18T03:24:57;8.60;;;4.40;;
51048;SDS011;37084;55.228;36.450;2023-09-18T03:27:58;8.30;;;4.72;;
51048;SDS011;37084;55.228;36.450;2023-09-18T03:31:04;10.65;;;5.18;;
51048;SDS011;37084;55.228;36.450;2023-09-18T03:34:08;9.05;;;5.15;;
51048;SDS011;37084;55.228;36.450;2023-09-18T03:37:10;8.02;;;4.68;;
51048;SDS011;37084;55.228;36.450;2023-09-18T03:40:11;9.73;;;5.65;;
51048;SDS011;37084;55.228;36.450;2023-09-18T03:43:12;8.35;;;4.78;;
51048;SDS011;37084;55.228;36.450;2023-09-18T03:46:13;10.65;;;4.72;;
51048;SDS011;37084;55.228;36.450;2023-09-18T03:49:23;8.48;;;4.90;;
51048;SDS011;37084;55.228;36.450;2023-09-18T03:52:26;8.65;;;5.07;;
51048;SDS011;37084;55.228;36.450;2023-09-18T03:55:28;11.25;;;4.85;;
51048;SDS011;37084;55.228;36.450;2023-09-18T03:58:29;8.45;;;4.65;;
51048;SDS011;37084;55.228;36.450;2023-09-18T04:01:30;8.32;;;4.63;;
51048;SDS011;37084;55.228;36.450;2023-09-18T04:04:31;7.85;;;4.13;;
51048;SDS011;37084;55.228;36.450;2023-09-18T04:07:32;8.23;;;4.63;;
51048;SDS011;37084;55.228;36.450;2023-09-18T04:10:35;8.07;;;4.60;;
51048;SDS011;37084;55.228;36.450;2023-09-18T04:13:36;9.02;;;4.78;;
51048;SDS011;37084;55.228;36.450;2023-09-18T04:16:38;9.57;;;4.75;;
51048;SDS011;37084;55.228;36.450;2023-09-18T04:19:43;8.48;;;4.85;;
51048;SDS011;37084;55.228;36.450;2023-09-18T04:22:45;9.23;;;5.57;;
51048;SDS011;37084;55.228;36.450;2023-09-18T04:25:51;9.68;;;5.47;;
51048;SDS011;37084;55.228;36.450;2023-09-18T04:28:53;7.35;;;3.80;;
51048;SDS011;37084;55.228;36.450;2023-09-18T04:31:54;9.02;;;5.40;;
51048;SDS011;37084;55.228;36.450;2023-09-18T04:39:48;7.32;;;4.07;;
51048;SDS011;37084;55.228;36.450;2023-09-18T04:42:49;8.32;;;4.53;;
51048;SDS011;37084;55.228;36.450;2023-09-18T04:45:51;9.60;;;4.50;;
51048;SDS011;37084;55.228;36.450;2023-09-18T04:48:52;7.63;;;4.10;;
51048;SDS011;37084;55.228;36.450;2023-09-18T04:51:54;8.20;;;4.53;;
51048;SDS011;37084;55.228;36.450;2023-09-18T04:54:57;10.15;;;4.82;;
51048;SDS011;37084;55.228;36.450;2023-09-18T04:57:58;8.32;;;4.40;;
51048;SDS011;37084;55.228;36.450;2023-09-18T05:01:01;8.70;;;4.45;;
51048;SDS011;37084;55.228;36.450;2023-09-18T05:04:02;9.52;;;4.30;;
51048;SDS011;37084;55.228;36.450;2023-09-18T05:07:03;7.63;;;3.90;;
51048;SDS011;37084;55.228;36.450;2023-09-18T05:10:04;7.03;;;3.90;;
51048;SDS011;37084;55.228;36.450;2023-09-18T05:13:06;6.95;;;4.47;;
51048;SDS011;37084;55.228;36.450;2023-09-18T05:16:07;7.13;;;4.35;;
51048;SDS011;37084;55.228;36.450;2023-09-18T05:19:08;7.32;;;4.80;;
51048;SDS011;37084;55.228;36.450;2023-09-18T05:22:10;8.25;;;4.32;;
51048;SDS011;37084;55.228;36.450;2023-09-18T05:25:12;6.55;;;4.38;;
51048;SDS011;37084;55.228;36.450;2023-09-18T05:28:15;6.18;;;3.88;;
51048;SDS011;37084;55.228;36.450;2023-09-18T05:31:16;7.35;;;3.78;;
51048;SDS011;37084;55.228;36.450;2023-09-18T05:34:17;8.02;;;4.32;;
51048;SDS011;37084;55.228;36.450;2023-09-18T05:37:18;9.32;;;4.28;;
51048;SDS011;37084;55.228;36.450;2023-09-18T05:40:20;7.50;;;3.85;;
51048;SDS011;37084;55.228;36.450;2023-09-18T05:43:22;7.05;;;3.83;;
51048;SDS011;37084;55.228;36.450;2023-09-18T05:46:23;8.70;;;4.00;;
51048;SDS011;37084;55.228;36.450;2023-09-18T05:49:25;7.88;;;4.10;;
51048;SDS011;37084;55.228;36.450;2023-09-18T05:52:26;6.60;;;4.55;;
51048;SDS011;37084;55.228;36.450;2023-09-18T05:55:28;6.03;;;4.18;;
51048;SDS011;37084;55.228;36.450;2023-09-18T05:58:33;5.82;;;3.35;;
51048;SDS011;37084;55.228;36.450;2023-09-18T06:01:36;7.13;;;4.55;;
51048;SDS011;37084;55.228;36.450;2023-09-18T06:04:40;6.18;;;4.65;;
51048;SDS011;37084;55.228;36.450;2023-09-18T06:07:41;7.40;;;4.13;;
51048;SDS011;37084;55.228;36.450;2023-09-18T06:10:42;6.85;;;3.92;;
51048;SDS011;37084;55.228;36.450;2023-09-18T06:13:45;7.05;;;3.60;;
51048;SDS011;37084;55.228;36.450;2023-09-18T06:16:46;7.43;;;3.80;;
51048;SDS011;37084;55.228;36.450;2023-09-18T06:19:47;6.13;;;3.83;;
51048;SDS011;37084;55.228;36.450;2023-09-18T06:22:49;8.32;;;4.13;;
51048;SDS011;37084;55.228;36.450;2023-09-18T06:25:50;6.10;;;3.78;;
51048;SDS011;37084;55.228;36.450;2023-09-18T06:28:57;7.15;;;4.28;;
51048;SDS011;37084;55.228;36.450;2023-09-18T06:32:00;9.45;;;4.15;;
51048;SDS011;37084;55.228;36.450;2023-09-18T06:35:04;9.35;;;4.10;;
51048;SDS011;37084;55.228;36.450;2023-09-18T06:38:07;6.47;;;3.80;;
51048;SDS011;37084;55.228;36.450;2023-09-18T06:41:12;7.60;;;4.10;;
51048;SDS011;37084;55.228;36.450;2023-09-18T06:44:14;6.78;;;4.03;;
51048;SDS011;37084;55.228;36.450;2023-09-18T06:47:16;7.60;;;4.03;;
51048;SDS011;37084;55.228;36.450;2023-09-18T06:50:18;10.63;;;3.80;;
51048;SDS011;37084;55.228;36.450;2023-09-18T06:53:20;5.80;;;3.70;;
51048;SDS011;37084;55.228;36.450;2023-09-18T06:56:26;7.35;;;4.13;;
51048;SDS011;37084;55.228;36.450;2023-09-18T06:59:27;6.85;;;3.95;;
51048;SDS011;37084;55.228;36.450;2023-09-18T07:02:30;7.18;;;4.80;;
51048;SDS011;37084;55.228;36.450;2023-09-18T07:05:32;5.85;;;3.70;;
51048;SDS011;37084;55.228;36.450;2023-09-18T07:08:33;6.47;;;3.95;;
51048;SDS011;37084;55.228;36.450;2023-09-18T07:11:34;6.95;;;4.03;;
51048;SDS011;37084;55.228;36.450;2023-09-18T07:14:36;6.88;;;3.83;;
51048;SDS011;37084;55.228;36.450;2023-09-18T07:17:38;5.47;;;3.63;;
51048;SDS011;37084;55.228;36.450;2023-09-18T07:20:40;5.40;;;3.60;;
51048;SDS011;37084;55.228;36.450;2023-09-18T07:23:42;7.85;;;3.67;;
51048;SDS011;37084;55.228;36.450;2023-09-18T07:26:46;7.72;;;3.70;;
51048;SDS011;37084;55.228;36.450;2023-09-18T07:29:49;9.18;;;3.88;;
51048;SDS011;37084;55.228;36.450;2023-09-18T07:32:50;5.97;;;3.67;;
51048;SDS011;37084;55.228;36.450;2023-09-18T07:35:51;8.88;;;3.70;;
51048;SDS011;37084;55.228;36.450;2023-09-18T07:38:52;7.10;;;3.60;;
51048;SDS011;37084;55.228;36.450;2023-09-18T07:41:54;7.20;;;4.00;;
51048;SDS011;37084;55.228;36.450;2023-09-18T07:44:56;6.60;;;3.85;;
51048;SDS011;37084;55.228;36.450;2023-09-18T07:47:58;5.97;;;3.80;;
51048;SDS011;37084;55.228;36.450;2023-09-18T07:50:59;5.97;;;3.75;;
51048;SDS011;37084;55.228;36.450;2023-09-18T07:54:00;5.97;;;3.90;;
51048;SDS011;37084;55.228;36.450;2023-09-18T07:57:02;5.57;;;3.78;;
51048;SDS011;37084;55.228;36.450;2023-09-18T08:00:04;5.38;;;3.95;;
51048;SDS011;37084;55.228;36.450;2023-09-18T08:03:14;5.85;;;4.10;;
51048;SDS011;37084;55.228;36.450;2023-09-18T08:06:15;5.68;;;3.90;;
51048;SDS011;37084;55.228;36.450;2023-09-18T08:12:22;5.47;;;3.72;;
51048;SDS011;37084;55.228;36.450;2023-09-18T08:15:24;5.80;;;3.88;;
51048;SDS011;37084;55.228;36.450;2023-09-18T08:18:33;5.82;;;4.10;;
51048;SDS011;37084;55.228;36.450;2023-09-18T08:21:35;5.85;;;3.85;;
51048;SDS011;37084;55.228;36.450;2023-09-18T08:24:36;9.00;;;4.40;;
51048;SDS011;37084;55.228;36.450;2023-09-18T08:27:38;6.65;;;4.15;;
51048;SDS011;37084;55.228;36.450;2023-09-18T08:30:45;6.75;;;4.43;;
51048;SDS011;37084;55.228;36.450;2023-09-18T08:33:47;5.10;;;4.10;;
51048;SDS011;37084;55.228;36.450;2023-09-18T08:36:49;7.68;;;4.47;;
51048;SDS011;37084;55.228;36.450;2023-09-18T08:39:50;6.63;;;4.28;;
51048;SDS011;37084;55.228;36.450;2023-09-18T08:42:52;6.28;;;4.32;;
51048;SDS011;37084;55.228;36.450;2023-09-18T08:45:55;5.68;;;4.05;;
51048;SDS011;37084;55.228;36.450;2023-09-18T08:49:04;6.25;;;4.20;;
51048;SDS011;37084;55.228;36.450;2023-09-18T08:52:05;6.72;;;4.55;;
51048;SDS011;37084;55.228;36.450;2023-09-18T08:55:08;5.78;;;4.00;;
51048;SDS011;37084;55.228;36.450;2023-09-18T08:58:10;6.18;;;4.28;;
51048;SDS011;37084;55.228;36.450;2023-09-18T09:01:13;6.00;;;3.80;;
51048;SDS011;37084;55.228;36.450;2023-09-18T09:04:15;5.05;;;3.83;;
51048;SDS011;37084;55.228;36.450;2023-09-18T09:07:17;5.32;;;3.83;;
51048;SDS011;37084;55.228;36.450;2023-09-18T09:10:18;5.95;;;3.80;;
51048;SDS011;37084;55.228;36.450;2023-09-18T09:13:19;8.05;;;3.97;;
51048;SDS011;37084;55.228;36.450;2023-09-18T09:16:26;7.55;;;3.90;;
51048;SDS011;37084;55.228;36.450;2023-09-18T09:19:31;5.18;;;3.72;;
51048;SDS011;37084;55.228;36.450;2023-09-18T09:22:35;5.07;;;4.20;;
51048;SDS011;37084;55.228;36.450;2023-09-18T09:25:37;5.53;;;4.10;;
51048;SDS011;37084;55.228;36.450;2023-09-18T09:28:39;5.88;;;4.05;;
51048;SDS011;37084;55.228;36.450;2023-09-18T09:31:41;7.15;;;4.10;;
51048;SDS011;37084;55.228;36.450;2023-09-18T09:34:42;5.35;;;4.20;;
51048;SDS011;37084;55.228;36.450;2023-09-18T09:37:44;6.55;;;4.00;;
51048;SDS011;37084;55.228;36.450;2023-09-18T09:40:46;4.72;;;3.83;;
51048;SDS011;37084;55.228;36.450;2023-09-18T09:43:48;5.65;;;4.00;;
51048;SDS011;37084;55.228;36.450;2023-09-18T09:46:50;4.35;;;3.83;;
51048;SDS011;37084;55.228;36.450;2023-09-18T09:49:52;5.63;;;4.30;;
51048;SDS011;37084;55.228;36.450;2023-09-18T09:52:55;5.90;;;3.97;;
51048;SDS011;37084;55.228;36.450;2023-09-18T09:55:57;6.00;;;4.28;;
51048;SDS011;37084;55.228;36.450;2023-09-18T09:59:01;5.68;;;3.63;;
51048;SDS011;37084;55.228;36.450;2023-09-18T10:02:05;6.53;;;4.28;;
51048;SDS011;37084;55.228;36.450;2023-09-18T10:05:09;5.55;;;3.83;;
51048;SDS011;37084;55.228;36.450;2023-09-18T10:08:24;6.05;;;4.15;;
51048;SDS011;37084;55.228;36.450;2023-09-18T10:11:27;7.80;;;4.50;;
51048;SDS011;37084;55.228;36.450;2023-09-18T10:14:32;7.78;;;5.32;;
51048;SDS011;37084;55.228;36.450;2023-09-18T10:17:37;4.80;;;3.75;;
51048;SDS011;37084;55.228;36.450;2023-09-18T10:20:45;5.68;;;4.18;;
51048;SDS011;37084;55.228;36.450;2023-09-18T10:26:56;6.55;;;3.88;;
51048;SDS011;37084;55.228;36.450;2023-09-18T10:29:58;4.75;;;4.20;;
51048;SDS011;37084;55.228;36.450;2023-09-18T10:33:00;5.32;;;3.42;;
51048;SDS011;37084;55.228;36.450;2023-09-18T10:36:02;5.50;;;3.63;;
51048;SDS011;37084;55.228;36.450;2023-09-18T10:39:04;6.00;;;3.90;;
51048;SDS011;37084;55.228;36.450;2023-09-18T10:42:09;5.53;;;3.95;;
51048;SDS011;37084;55.228;36.450;2023-09-18T10:45:10;5.90;;;3.67;;
51048;SDS011;37084;55.228;36.450;2023-09-18T10:48:12;4.65;;;4.05;;
51048;SDS011;37084;55.228;36.450;2023-09-18T10:51:14;4.80;;;3.65;;
51048;SDS011;37084;55.228;36.450;2023-09-18T10:54:20;7.22;;;3.92;;
51048;SDS011;37084;55.228;36.450;2023-09-18T10:57:24;6.95;;;4.47;;
51048;SDS011;37084;55.228;36.450;2023-09-18T11:00:26;6.65;;;4.30;;
51048;SDS011;37084;55.228;36.450;2023-09-18T11:03:30;5.25;;;3.60;;
51048;SDS011;37084;55.228;36.450;2023-09-18T11:09:54;5.85;;;4.15;;
51048;SDS011;37084;55.228;36.450;2023-09-18T11:12:55;6.55;;;4.40;;
51048;SDS011;37084;55.228;36.450;2023-09-18T11:16:17;4.88;;;3.65;;
51048;SDS011;37084;55.228;36.450;2023-09-18T11:19:19;6.50;;;3.83;;
51048;SDS011;37084;55.228;36.450;2023-09-18T11:22:21;6.28;;;4.32;;
51048;SDS011;37084;55.228;36.450;2023-09-18T11:25:40;6.70;;;4.55;;
51048;SDS011;37084;55.228;36.450;2023-09-18T11:28:42;5.45;;;3.83;;
51048;SDS011;37084;55.228;36.450;2023-09-18T11:31:52;5.45;;;4.15;;
51048;SDS011;37084;55.228;36.450;2023-09-18T11:35:06;5.82;;;3.85;;
51048;SDS011;37084;55.228;36.450;2023-09-18T11:38:09;6.75;;;4.28;;
51048;SDS011;37084;55.228;36.450;2023-09-18T11:41:30;5.63;;;4.30;;
51048;SDS011;37084;55.228;36.450;2023-09-18T11:44:37;6.03;;;4.45;;
51048;SDS011;37084;55.228;36.450;2023-09-18T11:47:42;6.28;;;4.15;;
51048;SDS011;37084;55.228;36.450;2023-09-18T11:50:43;6.28;;;4.53;;
51048;SDS011;37084;55.228;36.450;2023-09-18T11:53:45;8.82;;;3.72;;
51048;SDS011;37084;55.228;36.450;2023-09-18T11:56:46;8.02;;;4.57;;
51048;SDS011;37084;55.228;36.450;2023-09-18T11:59:48;6.43;;;4.20;;
51048;SDS011;37084;55.228;36.450;2023-09-18T12:02:51;5.40;;;4.03;;
51048;SDS011;37084;55.228;36.450;2023-09-18T12:05:58;4.68;;;3.72;;
51048;SDS011;37084;55.228;36.450;2023-09-18T12:09:05;5.63;;;3.42;;
51048;SDS011;37084;55.228;36.450;2023-09-18T12:12:07;6.93;;;3.95;;
51048;SDS011;37084;55.228;36.450;2023-09-18T12:15:12;11.02;;;5.00;;
51048;SDS011;37084;55.228;36.450;2023-09-18T12:18:17;8.00;;;4.57;;
51048;SDS011;37084;55.228;36.450;2023-09-18T12:21:19;11.40;;;5.85;;
51048;SDS011;37084;55.228;36.450;2023-09-18T12:24:21;7.68;;;4.85;;
51048;SDS011;37084;55.228;36.450;2023-09-18T12:27:25;5.40;;;3.47;;
51048;SDS011;37084;55.228;36.450;2023-09-18T12:30:28;5.50;;;3.72;;
51048;SDS011;37084;55.228;36.450;2023-09-18T12:33:34;5.15;;;3.63;;
51048;SDS011;37084;55.228;36.450;2023-09-18T12:36:41;4.95;;;4.05;;
51048;SDS011;37084;55.228;36.450;2023-09-18T12:39:45;5.60;;;4.07;;
51048;SDS011;37084;55.228;36.450;2023-09-18T12:42:47;5.78;;;4.13;;
51048;SDS011;37084;55.228;36.450;2023-09-18T12:45:49;5.05;;;3.95;;
51048;SDS011;37084;55.228;36.450;2023-09-18T12:48:51;5.88;;;4.15;;
51048;SDS011;37084;55.228;36.450;2023-09-18T12:51:59;5.45;;;3.45;;
51048;SDS011;37084;55.228;36.450;2023-09-18T12:55:02;4.72;;;3.55;;
51048;SDS011;37084;55.228;36.450;2023-09-18T12:58:06;4.63;;;3.70;;
51048;SDS011;37084;55.228;36.450;2023-09-18T13:01:13;5.30;;;4.07;;
51048;SDS011;37084;55.228;36.450;2023-09-18T13:04:14;5.40;;;3.92;;
51048;SDS011;37084;55.228;36.450;2023-09-18T13:07:16;4.20;;;3.33;;
51048;SDS011;37084;55.228;36.450;2023-09-18T13:10:17;5.10;;;3.33;;
51048;SDS011;37084;55.228;36.450;2023-09-18T13:13:20;4.85;;;3.22;;
51048;SDS011;37084;55.228;36.450;2023-09-18T13:16:23;5.68;;;3.60;;
51048;SDS011;37084;55.228;36.450;2023-09-18T13:19:25;5.18;;;3.72;;
51048;SDS011;37084;55.228;36.450;2023-09-18T13:22:26;4.82;;;4.30;;
51048;SDS011;37084;55.228;36.450;2023-09-18T13:25:31;6.22;;;4.25;;
51048;SDS011;37084;55.228;36.450;2023-09-18T13:28:37;5.70;;;4.68;;
51048;SDS011;37084;55.228;36.450;2023-09-18T13:31:40;6.10;;;4.18;;
51048;SDS011;37084;55.228;36.450;2023-09-18T13:34:43;4.93;;;4.22;;
51048;SDS011;37084;55.228;36.450;2023-09-18T13:37:45;5.63;;;4.45;;
51048;SDS011;37084;55.228;36.450;2023-09-18T13:40:47;5.20;;;4.32;;
51048;SDS011;37084;55.228;36.450;2023-09-18T13:43:48;5.97;;;5.03;;
51048;SDS011;37084;55.228;36.450;2023-09-18T13:46:50;5.78;;;4.32;;
51048;SDS011;37084;55.228;36.450;2023-09-18T13:49:51;5.03;;;4.38;;
51048;SDS011;37084;55.228;36.450;2023-09-18T13:52:52;6.10;;;4.20;;
51048;SDS011;37084;55.228;36.450;2023-09-18T13:55:54;6.20;;;4.53;;
51048;SDS011;37084;55.228;36.450;2023-09-18T13:58:57;6.10;;;4.50;;
51048;SDS011;37084;55.228;36.450;2023-09-18T14:01:58;5.80;;;4.47;;
51048;SDS011;37084;55.228;36.450;2023-09-18T14:05:00;6.53;;;4.15;;
51048;SDS011;37084;55.228;36.450;2023-09-18T14:08:03;6.47;;;4.53;;
51048;SDS011;37084;55.228;36.450;2023-09-18T14:11:05;5.65;;;4.47;;
51048;SDS011;37084;55.228;36.450;2023-09-18T14:14:07;6.88;;;4.68;;
51048;SDS011;37084;55.228;36.450;2023-09-18T14:17:09;6.25;;;4.78;;
51048;SDS011;37084;55.228;36.450;2023-09-18T14:20:11;5.70;;;4.60;;
51048;SDS011;37084;55.228;36.450;2023-09-18T14:23:14;7.25;;;4.70;;
51048;SDS011;37084;55.228;36.450;2023-09-18T14:26:15;7.10;;;4.90;;
51048;SDS011;37084;55.228;36.450;2023-09-18T14:29:17;6.15;;;4.90;;
51048;SDS011;37084;55.228;36.450;2023-09-18T14:32:18;5.38;;;4.45;;
51048;SDS011;37084;55.228;36.450;2023-09-18T14:35:20;5.07;;;4.15;;
51048;SDS011;37084;55.228;36.450;2023-09-18T14:38:21;7.32;;;4.82;;
51048;SDS011;37084;55.228;36.450;2023-09-18T14:44:26;8.57;;;4.80;;
51048;SDS011;37084;55.228;36.450;2023-09-18T14:47:34;6.63;;;4.55;;
51048;SDS011;37084;55.228;36.450;2023-09-18T14:50:36;6.82;;;5.03;;
51048;SDS011;37084;55.228;36.450;2023-09-18T14:53:41;6.38;;;4.90;;
51048;SDS011;37084;55.228;36.450;2023-09-18T14:56:43;6.65;;;4.70;;
51048;SDS011;37084;55.228;36.450;2023-09-18T14:59:47;6.07;;;5.13;;
51048;SDS011;37084;55.228;36.450;2023-09-18T15:02:50;8.32;;;4.63;;
51048;SDS011;37084;55.228;36.450;2023-09-18T15:05:52;7.07;;;5.03;;
51048;SDS011;37084;55.228;36.450;2023-09-18T15:08:54;7.10;;;5.05;;
51048;SDS011;37084;55.228;36.450;2023-09-18T15:11:57;6.50;;;5.13;;
51048;SDS011;37084;55.228;36.450;2023-09-18T15:14:59;7.68;;;5.75;;
51048;SDS011;37084;55.228;36.450;2023-09-18T15:18:01;8.23;;;6.00;;
51048;SDS011;37084;55.228;36.450;2023-09-18T15:21:02;9.80;;;5.70;;
51048;SDS011;37084;55.228;36.450;2023-09-18T15:24:06;10.48;;;5.80;;
51048;SDS011;37084;55.228;36.450;2023-09-18T15:27:08;9.98;;;5.30;;
51048;SDS011;37084;55.228;36.450;2023-09-18T15:30:10;8.63;;;5.60;;
51048;SDS011;37084;55.228;36.450;2023-09-18T15:33:15;7.45;;;5.15;;
51048;SDS011;37084;55.228;36.450;2023-09-18T15:36:18;10.65;;;6.15;;
51048;SDS011;37084;55.228;36.450;2023-09-18T15:39:20;9.55;;;6.07;;
51048;SDS011;37084;55.228;36.450;2023-09-18T15:42:21;11.55;;;6.07;;
51048;SDS011;37084;55.228;36.450;2023-09-18T15:45:22;12.57;;;6.03;;
51048;SDS011;37084;55.228;36.450;2023-09-18T15:48:24;8.45;;;5.32;;
51048;SDS011;37084;55.228;36.450;2023-09-18T15:51:28;11.73;;;5.55;;
51048;SDS011;37084;55.228;36.450;2023-09-18T15:54:29;11.77;;;6.03;;
51048;SDS011;37084;55.228;36.450;2023-09-18T15:57:33;9.57;;;5.68;;
51048;SDS011;37084;55.228;36.450;2023-09-18T16:00:35;9.55;;;5.43;;
51048;SDS011;37084;55.228;36.450;2023-09-18T16:03:38;10.13;;;5.55;;
51048;SDS011;37084;55.228;36.450;2023-09-18T16:06:45;10.10;;;5.45;;
51048;SDS011;37084;55.228;36.450;2023-09-18T16:09:48;10.68;;;6.03;;
51048;SDS011;37084;55.228;36.450;2023-09-18T16:12:49;10.60;;;5.68;;
51048;SDS011;37084;55.228;36.450;2023-09-18T16:15:51;9.82;;;5.85;;
51048;SDS011;37084;55.228;36.450;2023-09-18T16:18:53;10.63;;;6.50;;
51048;SDS011;37084;55.228;36.450;2023-09-18T16:21:59;9.70;;;5.90;;
51048;SDS011;37084;55.228;36.450;2023-09-18T16:25:01;9.90;;;6.03;;
51048;SDS011;37084;55.228;36.450;2023-09-18T16:28:07;12.18;;;6.05;;
51048;SDS011;37084;55.228;36.450;2023-09-18T16:31:08;12.38;;;5.88;;
51048;SDS011;37084;55.228;36.450;2023-09-18T16:34:10;10.82;;;5.70;;
51048;SDS011;37084;55.228;36.450;2023-09-18T16:37:12;10.30;;;5.90;;
51048;SDS011;37084;55.228;36.450;2023-09-18T16:40:13;10.40;;;6.10;;
51048;SDS011;37084;55.228;36.450;2023-09-18T16:43:15;11.93;;;6.22;;
51048;SDS011;37084;55.228;36.450;2023-09-18T16:46:22;10.43;;;6.38;;
51048;SDS011;37084;55.228;36.450;2023-09-18T16:49:23;10.95;;;6.38;;
51048;SDS011;37084;55.228;36.450;2023-09-18T16:52:25;9.35;;;5.80;;
51048;SDS011;37084;55.228;36.450;2023-09-18T16:55:28;10.65;;;5.72;;
51048;SDS011;37084;55.228;36.450;2023-09-18T16:58:31;11.80;;;6.35;;
51048;SDS011;37084;55.228;36.450;2023-09-18T17:01:33;11.63;;;5.95;;
51048;SDS011;37084;55.228;36.450;2023-09-18T17:04:34;10.50;;;5.63;;
51048;SDS011;37084;55.228;36.450;2023-09-18T17:07:41;11.07;;;6.32;;
51048;SDS011;37084;55.228;36.450;2023-09-18T17:10:46;10.82;;;6.13;;
51048;SDS011;37084;55.228;36.450;2023-09-18T17:13:48;9.93;;;5.90;;
51048;SDS011;37084;55.228;36.450;2023-09-18T17:16:54;11.15;;;6.00;;
51048;SDS011;37084;55.228;36.450;2023-09-18T17:19:56;12.02;;;5.53;;
51048;SDS011;37084;55.228;36.450;2023-09-18T17:22:58;12.15;;;5.80;;
51048;SDS011;37084;55.228;36.450;2023-09-18T17:26:02;9.82;;;5.68;;
51048;SDS011;37084;55.228;36.450;2023-09-18T17:29:05;10.07;;;6.43;;
51048;SDS011;37084;55.228;36.450;2023-09-18T17:32:07;14.20;;;6.68;;
51048;SDS011;37084;55.228;36.450;2023-09-18T17:35:10;11.45;;;5.80;;
51048;SDS011;37084;55.228;36.450;2023-09-18T17:38:16;12.68;;;6.03;;
51048;SDS011;37084;55.228;36.450;2023-09-18T17:41:19;9.93;;;5.88;;
51048;SDS011;37084;55.228;36.450;2023-09-18T17:44:23;11.15;;;5.82;;
51048;SDS011;37084;55.228;36.450;2023-09-18T17:47:24;12.20;;;6.05;;
51048;SDS011;37084;55.228;36.450;2023-09-18T17:50:26;9.77;;;5.80;;
51048;SDS011;37084;55.228;36.450;2023-09-18T17:53:27;8.50;;;5.55;;
51048;SDS011;37084;55.228;36.450;2023-09-18T17:56:30;12.02;;;7.00;;
51048;SDS011;37084;55.228;36.450;2023-09-18T17:59:32;16.08;;;6.60;;
51048;SDS011;37084;55.228;36.450;2023-09-18T18:02:34;11.70;;;6.78;;
51048;SDS011;37084;55.228;36.450;2023-09-18T18:05:41;12.52;;;7.35;;
51048;SDS011;37084;55.228;36.450;2023-09-18T18:08:47;14.52;;;9.20;;
51048;SDS011;37084;55.228;36.450;2023-09-18T18:11:49;23.05;;;15.25;;
51048;SDS011;37084;55.228;36.450;2023-09-18T18:14:52;19.98;;;12.77;;
51048;SDS011;37084;55.228;36.450;2023-09-18T18:17:55;16.73;;;9.25;;
51048;SDS011;37084;55.228;36.450;2023-09-18T18:20:58;12.55;;;8.15;;